Terminal Aerodrome Forecast
Issued by NWS

Home | Current Version | Previous Version | Text Only | Print | Product List | Glossary On
Versions: 1 2 3 4 5 6 7 8 9 10 11 12 13 14 15
277
FTUS43 KABR 221858 AAA
TAFMBG
TAF AMD
KMBG 221858Z 2219/2318 14017G21KT P6SM FEW090
     FM230300 14009KT P6SM OVC070
     FM231200 12009KT P6SM VCSH OVC035
     FM231500 13010KT 5SM -SHRA BR OVC025=

USA.gov is the U.S. government's official web portal to all federal, state and local government web resources and services.